createdAt,value
2023-01-29T00:07:50.631Z,99
2023-01-29T00:57:53.559Z,100
2023-01-29T01:07:53.798Z,100
2023-01-29T01:17:54.827Z,100
2023-01-29T01:57:56.780Z,100
2023-01-29T02:27:58.162Z,100
2023-01-29T02:37:58.611Z,100
2023-01-29T02:47:59.323Z,100
2023-01-29T03:18:01.229Z,99
2023-01-29T03:38:01.536Z,100
2023-01-29T03:48:02.501Z,99
2023-01-29T03:58:02.843Z,99
2023-01-29T04:38:03.771Z,100
2023-01-29T04:48:03.922Z,100
2023-01-29T05:18:05.815Z,99
2023-01-29T05:28:06.311Z,99
2023-01-29T05:38:06.780Z,99
2023-01-29T05:48:07.691Z,100
2023-01-29T05:58:08.606Z,99
2023-01-29T06:38:11.901Z,100
2023-01-29T06:48:12.117Z,100
2023-01-29T07:18:13.947Z,99
2023-01-29T07:28:14.552Z,99
2023-01-29T07:38:15.633Z,99
2023-01-29T08:08:18.381Z,99
2023-01-29T08:18:19.489Z,98
2023-01-29T08:38:21.278Z,98
2023-01-29T08:48:22.187Z,98
2023-01-29T08:58:22.703Z,97
2023-01-29T09:08:23.330Z,97
2023-01-29T09:18:23.514Z,97
2023-01-29T09:38:25.502Z,96
2023-01-29T09:48:26.118Z,96
2023-01-29T10:08:27.706Z,95
2023-01-29T10:18:27.830Z,95
2023-01-29T10:28:28.302Z,95
2023-01-29T10:38:28.688Z,95
2023-01-29T10:48:29.666Z,94
2023-01-29T10:58:30.317Z,94
2023-01-29T11:08:30.502Z,94
2023-01-29T11:18:30.823Z,93
2023-01-29T11:48:32.043Z,92
2023-01-29T11:58:32.480Z,93
2023-01-29T12:08:32.876Z,92
2023-01-29T12:18:33.339Z,92
2023-01-29T12:28:33.420Z,91
2023-01-29T12:38:34.159Z,91
2023-01-29T12:48:34.845Z,91
2023-01-29T12:58:35.775Z,91
2023-01-29T13:08:36.633Z,90
2023-01-29T13:18:37.609Z,90
2023-01-29T13:28:37.764Z,90
2023-01-29T13:38:38.585Z,90
2023-01-29T13:48:39.544Z,90
2023-01-29T14:08:41.441Z,90
2023-01-29T14:28:42.913Z,90
2023-01-29T14:38:43.299Z,90
2023-01-29T14:48:43.851Z,90
2023-01-29T15:08:44.515Z,90
2023-01-29T15:18:45.263Z,91
2023-01-29T15:28:51.795Z,91
2023-01-29T15:38:46.466Z,91
2023-01-29T15:48:47.193Z,92
2023-01-29T15:58:47.330Z,92
2023-01-29T16:08:48.285Z,92
2023-01-29T16:18:59.412Z,92
2023-01-29T16:28:48.782Z,92
2023-01-29T16:38:49.126Z,92
2023-01-29T16:48:49.239Z,92
2023-01-29T16:58:49.618Z,92
2023-01-29T17:08:50.502Z,92
2023-01-29T17:28:52.299Z,91
2023-01-29T17:38:52.834Z,91
2023-01-29T17:48:53.482Z,91
2023-01-29T18:08:54.653Z,91
2023-01-29T18:18:55.586Z,92
2023-01-29T18:38:57.352Z,93
2023-01-29T18:48:58.278Z,95
2023-01-29T18:58:58.596Z,96
2023-01-29T19:08:58.723Z,97
2023-01-29T19:28:59.231Z,98
2023-01-29T19:38:59.334Z,97
2023-01-29T19:48:59.795Z,95
2023-01-29T20:09:00.623Z,94
2023-01-29T20:19:13.513Z,94
2023-01-29T20:29:01.638Z,94
2023-01-29T20:39:02.714Z,94
2023-01-29T20:49:02.761Z,94
2023-01-29T21:09:04.316Z,95
2023-01-29T21:19:04.704Z,95
2023-01-29T21:29:05.127Z,96
2023-01-29T21:39:06.089Z,97
2023-01-29T21:49:06.256Z,97
2023-01-29T21:59:07.017Z,97
2023-01-29T22:09:07.736Z,98
2023-01-29T22:19:08.435Z,98
2023-01-29T22:29:08.698Z,98
2023-01-29T22:49:10.638Z,99
2023-01-29T23:09:12.174Z,100
2023-01-29T23:19:12.946Z,99
2023-01-29T23:29:13.167Z,100
2023-01-29T23:59:14.200Z,100
